Tiempo atmosférico en la estación meteorológica de Fuente El Sol, Valladolid (755 m.)

Fecha
DESCASC
Temp. máxima en grados centígrados (hora)
DESCASC
Temp. mínima en grados centígrados (hora)
DESCASC
Temp. media en grados centígrados
DESCASC
Racha de viento máxima en m/sg (hora)
DESCASC
Velocidad máxima media en intervalos de 10 minutos(hora)
DESCASC
Precipitaciones diarias en mm
DESCASC
Precipitaciones de 00:00 a 06:00 en mm
DESCASC
Precipitaciones de 06:00 a 12:00 en mm
DESCASC
Precipitaciones de 12:00 a 18:00 en mm
DESCASC
Precipitaciones de 18:00 a 24:00 en mm
DESCASC
22-10-2017 17.7 (17:00) 0.1 (08:40) 8.9 6.39 (15:10) 3.89 (13:40) 0 0 0 0 0
21-10-2017 18.5 (15:50) 6.9 (23:59) 12.7 11.39 (13:40) 7.5 (13:30) 0 0 0 0 0
20-10-2017 21.3 (15:00) 11.9 (01:00) 16.6 11.11 (14:40) 7.5 (15:40) 0 0 0 0 0
19-10-2017 16.8 (17:10) 3.9 (00:00) 10.3 9.72 (15:30) 6.39 (18:10) 0 0 0 0 0
18-10-2017 14.5 (17:10) 8.3 (00:00) 11.4 11.11 (14:50) 8.06 (14:50) 4.2 1.4 2.8 0 0
17-10-2017 19 (02:20) 10.9 (00:00) 14.9 13.33 (12:40) 10.28 (12:50) 0 0 0 0 0
16-10-2017 28.4 (15:50) 14.7 (00:00) 21.5 10.83 (16:10) 8.06 (10:20) 0 0 0 0 0
15-10-2017 31.1 (14:50) 16.3 (00:00) 23.7 13.33 (17:00) 9.44 (16:50) 0 0 0 0 0
14-10-2017 30.5 (18:00) 6.3 (00:00) 18.4 11.67 (17:20) 5.56 (17:20) 0 0 0 0 0
13-10-2017 29.1 (17:20) 10.5 (00:00) 19.8 6.94 (16:40) 5 (04:10) 0 0 0 0 0
12-10-2017 30.5 (16:30) 5.5 (00:00) 18 6.11 (20:40) 4.72 (20:40) 0 0 0 0 0
11-10-2017 27.4 (16:10) 5.2 (00:00) 16.3 9.72 (15:00) 5.83 (15:30) 0 0 0 0 0
10-10-2017 28.3 (15:40) 2.7 (00:00) 15.5 4.72 (18:10) 3.61 (23:10) 0 0 0 0 0
09-10-2017 28.8 (17:10) 2.1 (00:00) 15.4 3.89 (18:40) 2.78 (18:50) 0 0 0 0 0
08-10-2017 28 (17:40) 1.7 (00:00) 14.9 5 (15:30) 3.33 (18:00) 0 0 0 0 0
07-10-2017 25.8 (17:20) 2.7 (00:00) 14.2 5.28 (17:40) 3.61 (17:50) 0 0 0 0 0
06-10-2017 26.8 (17:00) 7.1 (00:00) 16.9 9.72 (15:20) 6.11 (18:40) 0 0 0 0 0
05-10-2017 31.2 (18:10) 10.8 (00:00) 21 6.11 (14:00) 3.61 (23:00) 0 0 0 0 0
04-10-2017 31.9 (15:50) 8.2 (00:00) 20 5.28 (17:30) 3.33 (23:30) 0 0 0 0 0
03-10-2017 30.8 (18:20) 10.5 (00:00) 20.6 6.67 (15:50) 4.17 (15:50) 0 0 0 0 0
02-10-2017 29 (17:50) 10.7 (00:00) 19.8 6.94 (14:30) 3.89 (13:50) 0 0 0 0 0
01-10-2017 26.1 (15:40) 10.8 (00:00) 18.5 6.11 (17:30) 3.89 (00:20) 0 0 0 0 0
30-09-2017 26.1 (18:20) 12.9 (00:00) 19.5 7.5 (17:30) 5 (17:50) 0 0 0 0 0
29-09-2017 28.7 (17:30) 13.6 (00:00) 21.2 8.89 (17:40) 5.28 (16:20) 0 0 0 0 0
28-09-2017 29 (16:30) 9.6 (00:00) 19.3 7.22 (15:10) 4.72 (22:00) 0 0 0 0 0
27-09-2017 28.7 (17:40) 5.3 (00:00) 17 7.22 (15:30) 5 (23:30) 0 0 0 0 0
26-09-2017 26.8 (17:20) 5.2 (00:00) 16 5 (14:30) 3.33 (14:30) 0 0 0 0 0
25-09-2017 23.8 (18:40) 9.9 (00:00) 16.8 8.06 (17:10) 4.72 (00:30) 0 0 0 0 0
24-09-2017 28.5 (15:40) 9 (00:00) 18.8 10.56 (16:00) 8.06 (18:40) 0 0 0 0 0
23-09-2017 28.7 (16:40) 11.8 (00:00) 20.3 10.56 (16:40) 6.94 (07:40) 0 0 0 0 0

Gráficas

Temp. máximas Temp. mínimas Temp. medias Precipitaciones Rachas de viento máximas Velocidades máximas media en intervalos de 10 minutos

Datos horarios

Fecha y hora oficial Temperatura (ºC) Velocidad del viento (km/h) Dirección del viento Racha (km/h) Dirección de racha Precipitación (mm) Presión (hPa) Tendencia (hPa) Humedad (%)
2017-10-22 23:00:00 6 2 Sudeste 4 Sudeste 0 -- -- 77
2017-10-22 22:00:00 7 0 Calma 4 Noroeste 0 -- -- 72
2017-10-22 21:00:00 9.2 0 Calma 6 Este 0 -- -- 66
2017-10-22 20:00:00 12.4 6 Nordeste 10 Nordeste 0 -- -- 54
2017-10-22 19:00:00 15.5 8 Nordeste 15 Nordeste 0 -- -- 45
2017-10-22 18:00:00 16.6 11 Norte 19 Nordeste 0 -- -- 41
2017-10-22 17:00:00 17.7 6 Nordeste 18 Nordeste 0 -- -- 41
2017-10-22 16:00:00 16.5 9 Nordeste 23 Norte 0 -- -- 45
2017-10-22 15:00:00 15.8 13 Nordeste 22 Nordeste 0 -- -- 46
2017-10-22 14:00:00 14.4 13 Nordeste 21 Este 0 -- -- 56
2017-10-22 13:00:00 13.1 9 Nordeste 17 Nordeste 0 -- -- 62
2017-10-22 12:00:00 10.5 7 Nordeste 12 Norte 0 -- -- 70
2017-10-22 11:00:00 9 4 Nordeste 6 Este 0 -- -- 72
2017-10-22 10:00:00 5.7 2 Oeste 4 Noroeste 0 -- -- 85
2017-10-22 09:00:00 1 0 Calma 4 Sur 0 -- -- 95
2017-10-22 08:00:00 0.4 0 Calma 6 Sur 0 -- -- 96
2017-10-22 07:00:00 0.9 2 Sur 4 Sudoeste 0 -- -- 94
2017-10-22 06:00:00 1.5 3 Sur 6 Sudoeste 0 -- -- 93
2017-10-22 05:00:00 2.4 5 Sur 9 Sudoeste 0 -- -- 89
2017-10-22 04:00:00 2.8 8 Sudoeste 10 Sudoeste 0 -- -- 90
2017-10-22 03:00:00 3.5 5 Sudoeste 9 Sudoeste 0 -- -- 87
2017-10-22 02:00:00 5.4 9 Sudoeste 10 Oeste 0 -- -- 80
2017-10-22 01:00:00 6 4 Oeste 11 Oeste 0 -- -- 78
2017-10-22 00:00:00 6.9 8 Sudoeste 10 Sudoeste 0 -- -- 78
2017-10-21 23:00:00 7.7 8 Sudoeste 15 Sudoeste 0 -- -- 75
2017-10-21 22:00:00 8.8 10 Sudoeste 15 Sudoeste 0 -- -- 71
2017-10-21 21:00:00 9.9 11 Sudoeste 15 Oeste 0 -- -- 65
2017-10-21 20:00:00 12.2 11 Sudoeste 23 Oeste 0 -- -- 57
2017-10-21 19:00:00 15.2 18 Oeste 31 Oeste 0 -- -- 50
2017-10-21 18:00:00 16.6 18 Oeste 34 Oeste 0 -- -- 47
2017-10-21 17:00:00 16.8 24 Oeste 39 Oeste 0 -- -- 41
2017-10-21 16:00:00 17.8 23 Oeste 36 Oeste 0 -- -- 37
2017-10-21 15:00:00 17.6 17 Oeste 40 Sudoeste 0 -- -- 37
2017-10-21 14:00:00 16.3 25 Oeste 41 Oeste 0 -- -- 56
2017-10-21 13:00:00 15.2 20 Oeste 30 Oeste 0 -- -- 71
2017-10-21 12:00:00 14.3 19 Oeste 31 Oeste 0 -- -- 74
2017-10-21 11:00:00 13.4 23 Oeste 37 Oeste 0 -- -- 86
2017-10-21 10:00:00 13.8 23 Oeste 35 Oeste 0 -- -- 93
2017-10-21 09:00:00 14.2 10 Sudoeste 18 Sudoeste 0 -- -- 93
2017-10-21 08:00:00 14 10 Sur 22 Sudoeste 0 -- -- 92
2017-10-21 07:00:00 14.2 10 Sur 20 Sudoeste 0 -- -- 94
2017-10-21 06:00:00 14.4 17 Sudoeste 21 Sudoeste 0 -- -- 92
2017-10-21 05:00:00 13.5 10 Sur 20 Sudoeste 0 -- -- 94
2017-10-21 04:00:00 15.1 15 Sudoeste 29 Sudoeste 0 -- -- 89
2017-10-21 03:00:00 15.9 8 Sudoeste 14 Sudoeste 0 -- -- 89
2017-10-21 02:00:00 16 11 Sudoeste 20 Sudoeste 0 -- -- 90
2017-10-21 01:00:00 16.3 15 Sudoeste 24 Sudoeste 0 -- -- 88
2017-10-21 00:00:00 16.1 14 Sudoeste 28 Sudoeste 0 -- -- 88
2017-10-20 23:00:00 16.9 15 Sudoeste 22 Sudoeste 0 -- -- 80
2017-10-20 22:00:00 17.2 12 Sudoeste 26 Sudoeste 0 -- -- 79
2017-10-20 21:00:00 17.1 4 Sudoeste 24 Sudoeste 0 -- -- 82
2017-10-20 20:00:00 18.3 22 Sudoeste 31 Sudoeste 0 -- -- 73
2017-10-20 19:00:00 19.3 14 Sur 23 Sudoeste 0 -- -- 65
2017-10-20 18:00:00 19.7 19 Sudoeste 26 Sudoeste 0 -- -- 64
2017-10-20 17:00:00 20 18 Sudoeste 32 Sudoeste 0 -- -- 64
2017-10-20 16:00:00 19.1 23 Oeste 36 Sudoeste 0 -- -- 65
2017-10-20 15:00:00 21.3 24 Sudoeste 40 Oeste 0 -- -- 53
2017-10-20 14:00:00 20.1 23 Sudoeste 33 Sudoeste 0 -- -- 55
2017-10-20 13:00:00 17.7 23 Sudoeste 33 Sudoeste 0 -- -- 65
2017-10-20 12:00:00 17.1 21 Sudoeste 32 Oeste 0 -- -- 70
2017-10-20 11:00:00 15 10 Sudoeste 19 Sudoeste 0 -- -- 78
2017-10-20 10:00:00 13.4 8 Sur 15 Sur 0 -- -- 87
2017-10-20 09:00:00 11.9 10 Sur 18 Sur 0 -- -- 90
2017-10-20 08:00:00 12.5 11 Sur 21 Sudoeste 0 -- -- 88
2017-10-20 07:00:00 12.9 18 Sudoeste 25 Sudoeste 0 -- -- 88
2017-10-20 06:00:00 12 13 Sudoeste 25 Sudoeste 0 -- -- 89
2017-10-20 05:00:00 12.8 7 Sur 12 Sudoeste 0 -- -- 83
2017-10-20 04:00:00 12.5 8 Sudoeste 15 Sur 0 -- -- 81
2017-10-20 03:00:00 12.4 11 Sur 16 Sudoeste 0 -- -- 79
2017-10-20 02:00:00 11.9 10 Sur 15 Sur 0 -- -- 82
2017-10-20 01:00:00 11.9 10 Sudoeste 15 Sur 0 -- -- 82
2017-10-20 00:00:00 12.4 7 Sur 21 Sudoeste 0 -- -- 83
2017-10-19 23:00:00 12.8 15 Sudoeste 24 Sudoeste 0 -- -- 81
2017-10-19 22:00:00 12.6 14 Sudoeste 22 Sudoeste 0 -- -- 76
2017-10-19 21:00:00 13.4 11 Sudoeste 24 Sudoeste 0 -- -- 66
2017-10-19 20:00:00 14.2 19 Sudoeste 28 Sudoeste 0 -- -- 62
2017-10-19 19:00:00 14.4 22 Sudoeste 33 Sudoeste 0 -- -- 60
2017-10-19 18:00:00 15.5 18 Oeste 29 Sudoeste 0 -- -- 51
2017-10-19 17:00:00 16.4 18 Oeste 32 Sudoeste 0 -- -- 47
2017-10-19 16:00:00 16 16 Sudoeste 35 Oeste 0 -- -- 50
2017-10-19 15:00:00 14.9 14 Sudoeste 27 Sudoeste 0 -- -- 55
2017-10-19 14:00:00 -- 14 Oeste 23 Oeste 0 -- -- --
2017-10-19 13:00:00 13 10 Oeste 19 Oeste 0 -- -- 68
2017-10-19 12:00:00 12.7 9 Sudoeste 14 Oeste 0 -- -- 74
2017-10-19 11:00:00 10.5 9 Sudoeste 12 Sudoeste 0 -- -- 82
2017-10-19 10:00:00 7.7 8 Sudoeste 10 Sudoeste 0 -- -- 90
2017-10-19 09:00:00 4.3 7 Sudoeste 15 Sudoeste 0 -- -- 97
2017-10-19 08:00:00 4.1 11 Sudoeste 13 Sudoeste 0 -- -- 98
2017-10-19 07:00:00 4.3 10 Sudoeste 13 Sudoeste 0 -- -- 97
2017-10-19 06:00:00 4.3 4 Sudoeste 10 Sudoeste 0 -- -- 97
2017-10-19 05:00:00 5.3 9 Sudoeste 15 Sudoeste 0 -- -- 95
2017-10-19 04:00:00 5.9 12 Sudoeste 14 Sudoeste 0 -- -- 94
2017-10-19 03:00:00 6.7 11 Sudoeste 22 Sudoeste 0 -- -- 91
2017-10-19 02:00:00 7 9 Sudoeste 17 Sudoeste 0 -- -- 91
2017-10-19 01:00:00 7.6 11 Sudoeste 18 Sudoeste 0 -- -- 91
2017-10-19 00:00:00 8.3 14 Sudoeste 19 Sudoeste 0 -- -- 90
2017-10-18 23:00:00 9.2 13 Sudoeste 19 Sudoeste 0 -- -- 86
2017-10-18 22:00:00 10 13 Sudoeste 21 Sudoeste 0 -- -- 83
2017-10-18 21:00:00 10.4 16 Sudoeste 22 Sudoeste 0 -- -- 81
2017-10-18 20:00:00 10.3 15 Sudoeste 35 Sudoeste 0 -- -- 78
2017-10-18 19:00:00 12.6 29 Oeste 37 Sudoeste 0 -- -- 65
2017-10-18 18:00:00 13.7 18 Sudoeste 32 Oeste 0 -- -- 62
2017-10-18 17:00:00 14.3 20 Oeste 32 Oeste 0 -- -- 57
2017-10-18 16:00:00 13.3 25 Oeste 33 Oeste 0 -- -- 65
2017-10-18 15:00:00 12.1 25 Oeste 40 Oeste 0 -- -- 78
2017-10-18 14:00:00 13 15 Oeste 29 Oeste 0 -- -- 75
2017-10-18 13:00:00 13.2 17 Oeste 25 Sudoeste 0 -- -- 76
2017-10-18 12:00:00 11.9 22 Sudoeste 29 Sudoeste 0 -- -- 82
2017-10-18 11:00:00 11.2 12 Sudoeste 21 Sur 0 -- -- 88
2017-10-18 10:00:00 10.9 9 Sur 18 Sur 0.2 -- -- 91
2017-10-18 09:00:00 10.4 10 Sur 27 Sur 1 -- -- 92
2017-10-18 08:00:00 10.3 10 Sur 21 Sur 0.6 -- -- 94
2017-10-18 07:00:00 10.5 9 Sudoeste 15 Sudoeste 1 -- -- 91
2017-10-18 06:00:00 10.6 5 Sur 8 Sur 0.4 -- -- 91
2017-10-18 05:00:00 10.3 6 Este 7 Este 0.4 -- -- 91
2017-10-18 04:00:00 10.5 6 Sudeste 14 Sur 0.6 -- -- 85
2017-10-18 03:00:00 9.8 5 Sudeste 13 Sudeste 0 -- -- 77
2017-10-18 02:00:00 9.3 10 Sudeste 14 Sur 0 -- -- 78
2017-10-18 01:00:00 11.2 9 Sur 17 Sur 0 -- -- 72
2017-10-18 00:00:00 10.9 10 Sur 14 Sur 0 -- -- 72
2017-10-17 23:00:00 12.9 10 Sudeste 33 Sudoeste 0 -- -- 65
2017-10-17 22:00:00 14.2 15 Sudoeste 26 Sur 0 -- -- 60
2017-10-17 21:00:00 15.2 15 Sur 21 Sudoeste 0 -- -- 56
2017-10-17 20:00:00 15.5 12 Sudeste 27 Sur 0 -- -- 81
2017-10-17 19:00:00 16.6 19 Sudoeste 37 Sudoeste 0 -- -- 69
2017-10-17 18:00:00 18 27 Sudoeste 43 Sudoeste 0 -- -- 63
2017-10-17 17:00:00 18.9 21 Sur 42 Sudeste 0 -- -- 56
2017-10-17 16:00:00 18.8 33 Sudeste 45 Sudeste 0 -- -- 59
2017-10-17 15:00:00 18.1 30 Sudeste 42 Sudeste 0 -- -- 62
2017-10-17 14:00:00 18 31 Sudeste 45 Sudeste 0 -- -- 65
2017-10-17 13:00:00 18.7 36 Sudeste 48 Sudeste 0 -- -- 54
2017-10-17 12:00:00 18.7 29 Sudeste 38 Sudeste 0 -- -- 53
2017-10-17 11:00:00 17.6 30 Sudeste 38 Sudeste 0 -- -- 55
2017-10-17 10:00:00 17.4 28 Sudeste 37 Sudeste 0 -- -- 54
2017-10-17 09:00:00 17.3 27 Sudeste 35 Sudeste 0 -- -- 52
2017-10-17 08:00:00 17 26 Sudeste 35 Sudeste 0 -- -- 52
2017-10-17 07:00:00 16.7 21 Sudeste 35 Sudeste 0 -- -- 55
2017-10-17 06:00:00 17.9 28 Sudeste 37 Sudeste 0 -- -- 48
2017-10-17 05:00:00 18 22 Sudeste 36 Sudeste 0 -- -- 45
2017-10-17 04:00:00 17.8 18 Sudeste 28 Sudeste 0 -- -- 45
2017-10-17 03:00:00 18.7 20 Sudeste 32 Sudeste 0 -- -- 43
2017-10-17 02:00:00 18.8 22 Sudeste 30 Sudeste 0 -- -- 43
2017-10-17 01:00:00 15.5 12 Sudeste 16 Sudeste 0 -- -- 49
2017-10-17 00:00:00 14.9 10 Sudeste 12 Sudeste 0 -- -- 47
2017-10-16 23:00:00 15.9 8 Sudeste 16 Sudeste 0 -- -- 45
2017-10-16 22:00:00 17.3 12 Sudeste 14 Sudeste 0 -- -- 40
2017-10-16 21:00:00 18.5 8 Sudeste 17 Sudeste 0 -- -- 34
2017-10-16 20:00:00 20.5 6 Sudoeste 22 Sudoeste 0 -- -- 31
2017-10-16 19:00:00 23.6 18 Sudoeste 27 Sudoeste 0 -- -- 27
2017-10-16 18:00:00 26.3 14 Oeste 24 Oeste 0 -- -- 23
2017-10-16 17:00:00 26.9 12 Oeste 39 Sudeste 0 -- -- 24
2017-10-16 16:00:00 28.4 21 Sudeste 37 Sudeste 0 -- -- 25
2017-10-16 15:00:00 27.8 24 Sudeste 35 Sudeste 0 -- -- 27
2017-10-16 14:00:00 27.1 17 Sudeste 31 Sudeste 0 -- -- 27
2017-10-16 13:00:00 25.7 23 Sudeste 35 Sudeste 0 -- -- 31
2017-10-16 12:00:00 24.4 26 Sudeste 34 Sudeste 0 -- -- 35
2017-10-16 11:00:00 21.7 29 Sudeste 37 Sudeste 0 -- -- 44
2017-10-16 10:00:00 18.3 24 Sudeste 31 Sudeste 0 -- -- 55
2017-10-16 09:00:00 15.2 14 Sur 28 Sur 0 -- -- 55
2017-10-16 08:00:00 15.6 21 Sudeste 28 Sur 0 -- -- 55
2017-10-16 07:00:00 15.9 19 Sudeste 29 Sudeste 0 -- -- 54
2017-10-16 06:00:00 16.1 18 Sudeste 23 Sudeste 0 -- -- 53
2017-10-16 05:00:00 16.2 18 Sudeste 30 Sudeste 0 -- -- 52
2017-10-16 04:00:00 16.2 16 Sudeste 23 Sudeste 0 -- -- 52
2017-10-16 03:00:00 16.9 19 Sudeste 31 Sudeste 0 -- -- 48
2017-10-16 02:00:00 18.1 18 Sudeste 27 Sudeste 0 -- -- 45
2017-10-16 01:00:00 17.7 15 Sudeste 19 Sudeste 0 -- -- 45
2017-10-16 00:00:00 17.6 13 Sudeste 20 Sudeste 0 -- -- 46
2017-10-15 23:00:00 19.2 17 Sudeste 23 Sudeste 0 -- -- 42
2017-10-15 22:00:00 19.2 12 Sudeste 19 Sudeste 0 -- -- 41
2017-10-15 21:00:00 21.7 18 Sudeste 31 Sudeste 0 -- -- 36
2017-10-15 20:00:00 24 19 Sudeste 34 Sudeste 0 -- -- 32
2017-10-15 19:00:00 27.2 26 Sudeste 41 Sudeste 0 -- -- 28
2017-10-15 18:00:00 28.9 31 Sudeste 42 Sudeste 0 -- -- 24
2017-10-15 17:00:00 30 33 Sudeste 48 Sudeste 0 -- -- 20
2017-10-15 16:00:00 30.6 27 Sudeste 41 Sudeste 0 -- -- 20
2017-10-15 15:00:00 30.6 23 Sudeste 33 Sudeste 0 -- -- 20
2017-10-15 14:00:00 30 11 Sudeste 25 Sudeste 0 -- -- 22
2017-10-15 13:00:00 29.2 15 Este 22 Sudeste 0 -- -- 23
2017-10-15 12:00:00 27.7 9 Sudeste 14 Sudeste 0 -- -- 26
2017-10-15 11:00:00 24.5 5 Este 8 Este 0 -- -- 32
2017-10-15 10:00:00 18.3 4 Nordeste 10 Nordeste 0 -- -- 42
2017-10-15 09:00:00 18 4 Sudeste 21 Sudeste 0 -- -- 43
2017-10-15 08:00:00 18.8 7 Sudeste 13 Sudeste 0 -- -- 40
2017-10-15 07:00:00 17.3 6 Este 12 Sudeste 0 -- -- 43
2017-10-15 06:00:00 16.6 5 Este 9 Este 0 -- -- 42
2017-10-15 05:00:00 16.9 3 Este 10 Nordeste 0 -- -- 41
2017-10-15 04:00:00 18.1 0 Calma 3 Sudoeste 0 -- -- 40
2017-10-15 03:00:00 18.3 5 Sur 13 Sur 0 -- -- 37
2017-10-15 02:00:00 19.7 9 Sudoeste 17 Sudoeste 0 -- -- 35
2017-10-15 01:00:00 20.1 14 Sur 21 Sur 0 -- -- 34
2017-10-15 00:00:00 20.2 14 Sudoeste 19 Sur 0 -- -- 33
2017-10-14 23:00:00 18.9 3 Sudoeste 12 Sudoeste 0 -- -- 35
2017-10-14 22:00:00 20 8 Sudoeste 17 Sudoeste 0 -- -- 34
2017-10-14 21:00:00 22.7 16 Sudoeste 24 Sudoeste 0 -- -- 29
2017-10-14 20:00:00 24.7 18 Sudoeste 22 Sudoeste 0 -- -- 27
2017-10-14 19:00:00 27.4 10 Sudoeste 19 Sudoeste 0 -- -- 23
2017-10-14 18:00:00 30.5 3 Sudoeste 42 Oeste 0 -- -- 20
2017-10-14 17:00:00 30 15 Oeste 25 Sudoeste 0 -- -- 20
2017-10-14 16:00:00 28.7 15 Sudoeste 25 Sudoeste 0 -- -- 21
2017-10-14 15:00:00 28.4 13 Oeste 22 Oeste 0 -- -- 21
2017-10-14 14:00:00 28.8 3 Noroeste 9 Sudoeste 0 -- -- 22
2017-10-14 13:00:00 26.2 2 Sudoeste 9 Sudoeste 0 -- -- 27
2017-10-14 12:00:00 23.1 2 Norte 5 Noroeste 0 -- -- 30
2017-10-14 11:00:00 20.5 0 Calma 3 Este 0 -- -- 33
2017-10-14 10:00:00 13.9 2 Sur 9 Sur 0 -- -- 45
2017-10-14 09:00:00 7.9 2 Sudeste 4 Sur 0 -- -- 62
2017-10-14 08:00:00 6.5 0 Calma 3 Oeste 0 -- -- 69
2017-10-14 07:00:00 6.7 2 Sudoeste 7 Sur 0 -- -- 67
2017-10-14 06:00:00 9 6 Sur 7 Sur 0 -- -- 60
2017-10-14 05:00:00 10.2 5 Sur 8 Sur 0 -- -- 61
2017-10-14 04:00:00 10.5 4 Sudeste 8 Sudeste 0 -- -- 57
2017-10-14 03:00:00 10.5 4 Sur 4 Sur 0 -- -- 54
2017-10-14 02:00:00 12 2 Sur 6 Este 0 -- -- 53
2017-10-14 01:00:00 12.9 3 Sur 18 Sudoeste 0 -- -- 51
2017-10-14 00:00:00 16.1 13 Sudoeste 18 Sudoeste 0 -- -- 42
2017-10-13 23:00:00 15.9 8 Sudoeste 17 Sudoeste 0 -- -- 41
2017-10-13 22:00:00 17 12 Sudoeste 17 Oeste 0 -- -- 39
2017-10-13 21:00:00 21.3 14 Sudoeste 22 Oeste 0 -- -- 30
2017-10-13 20:00:00 21.6 7 Sudoeste 20 Sudoeste 0 -- -- 27
2017-10-13 19:00:00 27 15 Sudoeste 21 Sudoeste 0 -- -- 22
2017-10-13 18:00:00 27.4 13 Oeste 22 Oeste 0 -- -- 26
2017-10-13 17:00:00 28.5 8 Oeste 25 Oeste 0 -- -- 25
2017-10-13 16:00:00 28.6 4 Sur 17 Norte 0 -- -- 28
2017-10-13 15:00:00 28.3 4 Oeste 14 Sudoeste 0 -- -- 28
2017-10-13 14:00:00 27.3 5 Norte 14 Sudoeste 0 -- -- 32
2017-10-13 13:00:00 27.3 0 Calma 9 Este 0 -- -- 34
2017-10-13 12:00:00 24.7 2 Nordeste 7 Este 0 -- -- 34
2017-10-13 11:00:00 20.9 2 Nordeste 4 Norte 0 -- -- 39
2017-10-13 10:00:00 15.8 2 Nordeste 5 Norte 0 -- -- 49
2017-10-13 09:00:00 10.9 0 Calma 10 Sur 0 -- -- 62
2017-10-13 08:00:00 12.2 6 Sur 10 Sur 0 -- -- 58
2017-10-13 07:00:00 12.5 9 Sur 13 Sur 0 -- -- 59
2017-10-13 06:00:00 12.3 5 Sudeste 9 Sur 0 -- -- 59
2017-10-13 05:00:00 14.1 4 Este 21 Sur 0 -- -- 55
2017-10-13 04:00:00 16.8 14 Sur 18 Sur 0 -- -- 51
2017-10-13 03:00:00 13.9 10 Sur 15 Sur 0 -- -- 48
2017-10-13 02:00:00 16.2 13 Sur 19 Sur 0 -- -- 42
2017-10-13 01:00:00 17.4 13 Sur 19 Sur 0 -- -- 40
2017-10-13 00:00:00 17.1 6 Sur 11 Sudoeste 0 -- -- 39
2017-10-12 23:00:00 17.5 8 Sur 19 Sudoeste 0 -- -- 31
2017-10-12 22:00:00 17.8 15 Sudoeste 19 Sudoeste 0 -- -- 31
2017-10-12 21:00:00 22.7 8 Norte 22 Nordeste 0 -- -- 25
2017-10-12 20:00:00 23.4 9 Norte 14 Norte 0 -- -- 24
2017-10-12 19:00:00 27.8 6 Norte 9 Norte 0 -- -- 20
2017-10-12 18:00:00 30.2 3 Sur 10 Noroeste 0 -- -- 18
2017-10-12 17:00:00 30 4 Noroeste 17 Este 0 -- -- 18
2017-10-12 16:00:00 30 5 Norte 16 Este 0 -- -- 17
2017-10-12 15:00:00 29.7 5 Noroeste 13 Norte 0 -- -- 16
2017-10-12 14:00:00 28.5 4 Sudeste 18 Este 0 -- -- 18
2017-10-12 13:00:00 25.5 10 Nordeste 19 Este 0 -- -- 22
2017-10-12 12:00:00 20.7 5 Nordeste 10 Nordeste 0 -- -- 28
2017-10-12 11:00:00 17.6 3 Nordeste 6 Sudeste 0 -- -- 31
2017-10-12 10:00:00 12.8 3 Este 5 Sudeste 0 -- -- 37
2017-10-12 09:00:00 6.6 2 Este 4 Sur 0 -- -- 48
2017-10-12 08:00:00 6.2 3 Sudeste 6 Este 0 -- -- 47
2017-10-12 07:00:00 6.9 6 Sur 10 Sur 0 -- -- 45
2017-10-12 06:00:00 7 6 Sur 8 Sur 0 -- -- 46
2017-10-12 05:00:00 6.4 2 Sudeste 6 Sudeste 0 -- -- 47
2017-10-12 04:00:00 7 4 Sudeste 6 Sudeste 0 -- -- 48
2017-10-12 03:00:00 7.6 0 Calma 10 Noroeste 0 -- -- 44
2017-10-12 02:00:00 8.8 0 Calma 7 Sur 0 -- -- 46
2017-10-12 01:00:00 11.6 3 Sur 11 Sur 0 -- -- 37
2017-10-12 00:00:00 11.9 4 Sur 11 Sur 0 -- -- 36
2017-10-11 23:00:00 13.1 9 Sur 13 Sur 0 -- -- 35
2017-10-11 22:00:00 14.4 9 Sudeste 12 Sur 0 -- -- 34
2017-10-11 21:00:00 16.5 2 Sur 8 Noroeste 0 -- -- 30
2017-10-11 20:00:00 19.5 8 Noroeste 15 Noroeste 0 -- -- 29
2017-10-11 19:00:00 24.1 13 Noroeste 28 Noroeste 0 -- -- 23
2017-10-11 18:00:00 26.7 15 Noroeste 28 Oeste 0 -- -- 21
2017-10-11 17:00:00 26.9 15 Oeste 31 Oeste 0 -- -- 21
2017-10-11 16:00:00 26.8 16 Oeste 33 Sudoeste 0 -- -- 22
2017-10-11 15:00:00 26.5 19 Sudoeste 35 Sudoeste 0 -- -- 22
2017-10-11 14:00:00 26.9 14 Oeste 24 Oeste 0 -- -- 22
2017-10-11 13:00:00 24.5 5 Noroeste 8 Noroeste 0 -- -- 24
2017-10-11 12:00:00 21.4 4 Noroeste 8 Noroeste 0 -- -- 26
2017-10-11 11:00:00 18.9 0 Calma 5 Noroeste 0 -- -- 29
2017-10-11 10:00:00 13.4 2 Este 10 Sudeste 0 -- -- 35
2017-10-11 09:00:00 6.4 5 Este 10 Sudeste 0 -- -- 46
2017-10-11 08:00:00 5.5 2 Sudeste 5 Este 0 -- -- 47
2017-10-11 07:00:00 6.5 3 Nordeste 5 Este 0 -- -- 44
2017-10-11 06:00:00 6.6 0 Calma 12 Noroeste 0 -- -- 49
2017-10-11 05:00:00 8.8 4 Sur 10 Sur 0 -- -- 40
2017-10-11 04:00:00 9.3 8 Sur 11 Sur 0 -- -- 38
2017-10-11 03:00:00 9.7 5 Sur 9 Sur 0 -- -- 36
2017-10-11 02:00:00 11.7 6 Sur 12 Sur 0 -- -- 31
2017-10-11 01:00:00 10.8 3 Sur 11 Sur 0 -- -- 33
2017-10-11 00:00:00 10.8 3 Sur 17 Sur 0 -- -- 36
2017-10-10 23:00:00 11.8 7 Sur 13 Sur 0 -- -- 31
2017-10-10 22:00:00 12.4 -- -- -- -- 0 -- -- 31
2017-10-10 21:00:00 15.8 5 Noroeste 9 Noroeste 0 -- -- 27
2017-10-10 20:00:00 19.9 5 Norte 10 Noroeste 0 -- -- 21
2017-10-10 19:00:00 25 9 Noroeste 17 Oeste 0 -- -- 17
2017-10-10 18:00:00 27.3 7 Noroeste 14 Noroeste 0 -- -- 16
2017-10-10 17:00:00 27.5 8 Oeste 15 Oeste 0 -- -- 15
2017-10-10 16:00:00 27.8 6 Oeste 13 Oeste 0 -- -- 15
2017-10-10 15:00:00 27.6 3 Sudoeste 8 Norte 0 -- -- 15
2017-10-10 14:00:00 25.6 3 Noroeste 9 Noroeste 0 -- -- 17
2017-10-10 13:00:00 22.4 3 Este 7 Noroeste 0 -- -- 21
2017-10-10 12:00:00 18.8 3 Norte 6 Noroeste 0 -- -- 26
2017-10-10 11:00:00 15.5 3 Noroeste 5 Sudoeste 0 -- -- 28
2017-10-10 10:00:00 11 2 Oeste 4 Sudoeste 0 -- -- 33
2017-10-10 09:00:00 6.1 0 Calma 0 Calma 0 -- -- 45
2017-10-10 08:00:00 3 0 Calma -- -- 0 -- -- 52
2017-10-10 07:00:00 4.2 3 Sudeste 5 Sudeste 0 -- -- 43
2017-10-10 06:00:00 3.8 3 Sur 5 Sur 0 -- -- 58
2017-10-10 05:00:00 4.5 2 Sudeste 4 Norte 0 -- -- 44
2017-10-10 04:00:00 6 4 Sudeste 5 Sur 0 -- -- 40
2017-10-10 03:00:00 7.2 3 Este 6 Norte 0 -- -- 36
2017-10-10 02:00:00 7.9 3 Sur 6 Nordeste 0 -- -- 38
2017-10-10 01:00:00 9.2 0 Calma 8 Sur 0 -- -- 38
2017-10-10 00:00:00 9.4 4 Sur 6 Sur 0 -- -- 39
2017-10-09 23:00:00 10.6 4 Sur 5 Sur 0 -- -- 42
2017-10-09 22:00:00 12.3 2 Sur -- -- 0 -- -- 34
2017-10-09 21:00:00 15.5 0 Calma 7 Noroeste 0 -- -- 26
2017-10-09 20:00:00 20.6 5 Noroeste 10 Norte 0 -- -- 21
2017-10-09 19:00:00 25.3 8 Noroeste 14 Noroeste 0 -- -- 17
2017-10-09 18:00:00 27.8 8 Noroeste 13 Noroeste 0 -- -- 14
2017-10-09 17:00:00 27.9 2 Sudeste 12 Oeste 0 -- -- 14
2017-10-09 16:00:00 26.7 5 Nordeste 12 Norte 0 -- -- 15
2017-10-09 15:00:00 26.8 5 Noroeste 12 Nordeste 0 -- -- 14
2017-10-09 14:00:00 24.4 4 Noroeste 9 Norte 0 -- -- 17
2017-10-09 13:00:00 21.6 3 Noroeste 8 Norte 0 -- -- 20
2017-10-09 12:00:00 17.5 3 Noroeste 8 Noroeste 0 -- -- 27
2017-10-09 11:00:00 14.5 3 Noroeste 5 Noroeste 0 -- -- 30
2017-10-09 10:00:00 9.4 2 Sudoeste 4 Sur 0 -- -- 39
2017-10-09 09:00:00 4.7 0 Calma 2 Sur 0 -- -- 44
2017-10-09 08:00:00 2.4 0 Calma 3 Oeste 0 -- -- 50
2017-10-09 07:00:00 2.7 3 Oeste 4 Oeste 0 -- -- 53
2017-10-09 06:00:00 4.8 2 Sudeste 5 Sur 0 -- -- 41
2017-10-09 05:00:00 4 3 Sur 4 Sur 0 -- -- 45
2017-10-09 04:00:00 4.7 0 Calma 2 Sudeste 0 -- -- 44
2017-10-09 03:00:00 5.7 0 Calma 4 Sur 0 -- -- 49
2017-10-09 02:00:00 6.7 0 Calma 8 Sudeste 0 -- -- 45
2017-10-09 01:00:00 9 3 Sur 8 Sudeste 0 -- -- 36
2017-10-09 00:00:00 8.4 3 Sur 5 Sur 0 -- -- 43
2017-10-08 23:00:00 11.8 3 Sudeste 5 Sudeste 0 -- -- 31
2017-10-08 22:00:00 12.6 3 Sudoeste 6 Sudoeste 0 -- -- 34
2017-10-08 21:00:00 15.3 4 Sudoeste 6 Noroeste 0 -- -- 32
2017-10-08 20:00:00 20.6 5 Noroeste 9 Noroeste 0 -- -- 21
2017-10-08 19:00:00 27.3 9 Noroeste 15 Noroeste 0 -- -- 16
2017-10-08 18:00:00 27.8 12 Noroeste 18 Oeste 0 -- -- 14
2017-10-08 17:00:00 27.1 6 Norte 18 Noroeste 0 -- -- 14
2017-10-08 16:00:00 27 7 Noroeste 18 Noroeste 0 -- -- 15
2017-10-08 15:00:00 25 9 Noroeste 17 Norte 0 -- -- 15
2017-10-08 14:00:00 23.4 6 Noroeste 12 Noroeste 0 -- -- 18
2017-10-08 13:00:00 20.4 8 Oeste 13 Noroeste 0 -- -- 21
2017-10-08 12:00:00 16.8 7 Noroeste 11 Noroeste 0 -- -- 25
2017-10-08 11:00:00 14.4 5 Noroeste 9 Oeste 0 -- -- 28
2017-10-08 10:00:00 9.9 5 Oeste 7 Sudoeste 0 -- -- 34
2017-10-08 09:00:00 4.4 4 Sur 4 Sur 0 -- -- 43
2017-10-08 08:00:00 1.7 2 Sudoeste 4 Sudeste 0 -- -- 51
2017-10-08 07:00:00 2.9 2 Sur 6 Sudeste 0 -- -- 48
2017-10-08 06:00:00 3.2 4 Oeste 7 Sudoeste 0 -- -- 50
2017-10-08 05:00:00 3.7 3 Sur 5 Sur 0 -- -- 42
2017-10-08 04:00:00 4.1 2 Sudoeste 4 Sudoeste 0 -- -- 45
2017-10-08 03:00:00 4.9 3 Oeste 4 Sudoeste 0 -- -- 51
2017-10-08 02:00:00 6.7 4 Sur 7 Sur 0 -- -- 36
2017-10-08 01:00:00 6.9 0 Calma 4 Sudoeste 0 -- -- 42
2017-10-08 00:00:00 9.8 3 Sudeste 5 Sudeste 0 -- -- 33
2017-10-07 23:00:00 10.3 2 Sudeste 3 Norte 0 -- -- 32
2017-10-07 22:00:00 11.6 0 Calma 4 Sudoeste 0 -- -- 35
2017-10-07 21:00:00 14.3 2 Sudoeste 8 Oeste 0 -- -- 27
2017-10-07 20:00:00 21.1 2 Nordeste 13 Norte 0 -- -- 16
2017-10-07 19:00:00 25.1 9 Norte 19 Norte 0 -- -- 13
2017-10-07 18:00:00 25.5 11 Norte 19 Norte 0 -- -- 12
2017-10-07 17:00:00 25.3 10 Norte 18 Norte 0 -- -- 12
2017-10-07 16:00:00 24.3 7 Norte 19 Norte 0 -- -- 13
2017-10-07 15:00:00 22.5 5 Norte 13 Norte 0 -- -- 19
2017-10-07 14:00:00 20.3 5 Nordeste 12 Norte 0 -- -- 23
2017-10-07 13:00:00 18.4 3 Noroeste 13 Norte 0 -- -- 31
2017-10-07 12:00:00 13.9 6 Norte 12 Norte 0 -- -- 45
2017-10-07 11:00:00 12.5 3 Norte 6 Norte 0 -- -- 56
2017-10-07 10:00:00 9.5 2 Sudoeste 4 Sur 0 -- -- 74
2017-10-07 09:00:00 5.4 3 Oeste 5 Sur 0 -- -- 84
2017-10-07 08:00:00 3.2 3 Sur 5 Sur 0 -- -- 92
2017-10-07 07:00:00 4.3 3 Noroeste 12 Norte 0 -- -- 87
2017-10-07 06:00:00 6.9 10 Norte 13 Norte 0 -- -- 83
2017-10-07 05:00:00 6.3 10 Norte 13 Noroeste 0 -- -- 88
2017-10-07 04:00:00 6.4 7 Noroeste 9 Noroeste 0 -- -- 88
2017-10-07 03:00:00 8.1 6 Sudoeste 8 Oeste 0 -- -- 85
2017-10-07 02:00:00 10 5 Norte 12 Nordeste 0 -- -- 74
2017-10-07 01:00:00 10.6 7 Este 12 Este 0 -- -- 70
2017-10-07 00:00:00 14.2 9 Nordeste 13 Nordeste 0 -- -- 60
2017-10-06 23:00:00 15.6 10 Nordeste 23 Nordeste 0 -- -- 56
2017-10-06 22:00:00 17.8 14 Nordeste 20 Nordeste 0 -- -- 51
2017-10-06 21:00:00 19 12 Nordeste 25 Norte 0 -- -- 46
2017-10-06 20:00:00 21 15 Norte 28 Norte 0 -- -- 38
2017-10-06 19:00:00 24.3 21 Norte 30 Norte 0 -- -- 32
2017-10-06 18:00:00 25.7 20 Norte 29 Norte 0 -- -- 25
2017-10-06 17:00:00 26.8 18 Norte 28 Norte 0 -- -- 24
2017-10-06 16:00:00 26.4 19 Norte 35 Norte 0 -- -- 23
2017-10-06 15:00:00 25.5 13 Norte 24 Nordeste 0 -- -- 27
2017-10-06 14:00:00 23.2 13 Nordeste 22 Nordeste 0 -- -- 35
2017-10-06 13:00:00 20 9 Norte 16 Norte 0 -- -- 47
2017-10-06 12:00:00 17.3 6 Norte 15 Nordeste 0 -- -- 56
2017-10-06 11:00:00 15.4 6 Norte 12 Norte 0 -- -- 64
2017-10-06 10:00:00 14.5 4 Noroeste 5 Noroeste 0 -- -- 69
2017-10-06 09:00:00 10 3 Norte 4 Norte 0 -- -- 90
2017-10-06 08:00:00 7.2 3 Norte 9 Norte 0 -- -- 91
2017-10-06 07:00:00 8.8 7 Norte 10 Norte 0 -- -- 90
2017-10-06 06:00:00 9.6 6 Norte 14 Norte 0 -- -- 86
2017-10-06 05:00:00 11.5 10 Norte 15 Norte 0 -- -- 84
2017-10-06 04:00:00 11.2 10 Norte 13 Noroeste 0 -- -- 78
2017-10-06 03:00:00 12.3 9 Noroeste 12 Noroeste 0 -- -- 76
2017-10-06 02:00:00 12.4 11 Oeste 13 Oeste 0 -- -- 66
2017-10-06 01:00:00 15.8 3 Nordeste 10 Norte 0 -- -- 60
2017-10-06 00:00:00 18.4 8 Nordeste 14 Nordeste 0 -- -- 56
2017-10-05 23:00:00 19.4 13 Nordeste 19 Nordeste 0 -- -- 41
2017-10-05 22:00:00 18.4 0 Calma 2 Sudeste 0 -- -- 38
2017-10-05 21:00:00 21 0 Calma 5 Norte 0 -- -- 37
2017-10-05 20:00:00 25.5 5 Norte 12 Noroeste 0 -- -- 32
2017-10-05 19:00:00 30.6 8 Noroeste 18 Oeste 0 -- -- 25
2017-10-05 18:00:00 30.7 10 Oeste 20 Noroeste 0 -- -- 24
2017-10-05 17:00:00 30.9 12 Noroeste 22 Noroeste 0 -- -- 25
2017-10-05 16:00:00 30.5 12 Oeste 21 Noroeste 0 -- -- 25
2017-10-05 15:00:00 30 12 Oeste 21 Noroeste 0 -- -- 26
2017-10-05 14:00:00 28.9 12 Noroeste 22 Noroeste 0 -- -- 31
2017-10-05 13:00:00 28.1 8 Noroeste 13 Noroeste 0 -- -- 34
2017-10-05 12:00:00 25.2 8 Oeste 12 Oeste 0 -- -- 40
2017-10-05 11:00:00 22.1 9 Oeste 13 Oeste 0 -- -- 48
2017-10-05 10:00:00 18.1 3 Oeste 5 Oeste 0 -- -- 57
2017-10-05 09:00:00 12.9 2 Sur 9 Sudoeste 0 -- -- 70
2017-10-05 08:00:00 10.8 8 Sudoeste 9 Sudoeste 0 -- -- 78
2017-10-05 07:00:00 11 3 Sudoeste 5 Sudoeste 0 -- -- 78
2017-10-05 06:00:00 12.5 2 Sur 12 Sur 0 -- -- 73
2017-10-05 05:00:00 13.9 9 Sur 13 Sur 0 -- -- 67
2017-10-05 04:00:00 14.8 4 Sur 10 Sudoeste 0 -- -- 66
2017-10-05 03:00:00 15.1 8 Sur 11 Sudoeste 0 -- -- 67
2017-10-05 02:00:00 14.2 5 Sur 7 Sur 0 -- -- 67
2017-10-05 01:00:00 16.7 4 Sur 12 Sur 0 -- -- 57
2017-10-05 00:00:00 16.9 8 Sur 14 Sur 0 -- -- 55
2017-10-04 23:00:00 19.1 7 Sudeste 13 Sudeste 0 -- -- 50
2017-10-04 22:00:00 20.9 5 Este 15 Este 0 -- -- 42
2017-10-04 21:00:00 21.1 2 Norte 5 Norte 0 -- -- 34
2017-10-04 20:00:00 26.8 0 Calma 12 Sudoeste 0 -- -- 25
2017-10-04 19:00:00 30.6 5 Sudoeste 14 Sudoeste 0 -- -- 21
2017-10-04 18:00:00 31 6 Sur 19 Sur 0 -- -- 21
2017-10-04 17:00:00 31.5 5 Sudeste 18 Sur 0 -- -- 21
2017-10-04 16:00:00 31.4 5 Noroeste 18 Sur 0 -- -- 24
2017-10-04 15:00:00 30.5 5 Este 18 Nordeste 0 -- -- 27
2017-10-04 14:00:00 28 11 Nordeste 18 Este 0 -- -- 35
2017-10-04 13:00:00 26.2 7 Nordeste 12 Norte 0 -- -- 40
2017-10-04 12:00:00 23.2 2 Norte 6 Nordeste 0 -- -- 43
2017-10-04 11:00:00 16.5 5 Nordeste 8 Nordeste 0 -- -- 57
2017-10-04 10:00:00 14.1 3 Norte 5 Norte 0 -- -- 62
2017-10-04 09:00:00 10.3 0 Calma 5 Este 0 -- -- 76
2017-10-04 08:00:00 8.2 2 Nordeste 5 Norte 0 -- -- 86
2017-10-04 07:00:00 8.5 0 Calma 6 Norte 0 -- -- 79
2017-10-04 06:00:00 9.5 3 Norte 9 Nordeste 0 -- -- 80
2017-10-04 05:00:00 11.6 4 Norte 11 Nordeste 0 -- -- 71
2017-10-04 04:00:00 12.4 4 Norte 6 Norte 0 -- -- 69
2017-10-04 03:00:00 12 2 Noroeste 4 Noroeste 0 -- -- 69
2017-10-04 02:00:00 12.7 2 Sur 5 Sur 0 -- -- 66
2017-10-04 01:00:00 14.8 4 Sudeste 6 Este 0 -- -- 58
2017-10-04 00:00:00 16.8 5 Este 13 Nordeste 0 -- -- 54
2017-10-03 23:00:00 19.2 10 Nordeste 17 Nordeste 0 -- -- 49
2017-10-03 22:00:00 21.8 10 Norte 14 Norte 0 -- -- 40
2017-10-03 21:00:00 20.4 7 Noroeste 13 Noroeste 0 -- -- 40
2017-10-03 20:00:00 24.3 9 Noroeste 13 Noroeste 0 -- -- 33
2017-10-03 19:00:00 29.7 10 Noroeste 21 Noroeste 0 -- -- 27
2017-10-03 18:00:00 30.3 12 Noroeste 23 Oeste 0 -- -- 26
2017-10-03 17:00:00 30.1 13 Noroeste 24 Noroeste 0 -- -- 28
2017-10-03 16:00:00 29.4 15 Noroeste 24 Noroeste 0 -- -- 34
2017-10-03 15:00:00 29 10 Noroeste 23 Noroeste 0 -- -- 39
2017-10-03 14:00:00 28.3 7 Oeste 17 Noroeste 0 -- -- 41
2017-10-03 13:00:00 26.7 6 Noroeste 15 Noroeste 0 -- -- 44
2017-10-03 12:00:00 25 7 Noroeste 12 Noroeste 0 -- -- 49
2017-10-03 11:00:00 22.3 6 Oeste 9 Oeste 0 -- -- 55
2017-10-03 10:00:00 18.8 5 Sur 9 Sudeste 0 -- -- 62
2017-10-03 09:00:00 13.2 8 Sudeste 10 Sur 0 -- -- 76
2017-10-03 08:00:00 10.9 4 Sur 6 Sudoeste 0 -- -- 84
2017-10-03 07:00:00 11.2 3 Sudeste 5 Sudeste 0 -- -- 81
2017-10-03 06:00:00 12.1 3 Nordeste 4 Nordeste 0 -- -- 77
2017-10-03 05:00:00 11.9 2 Nordeste 3 Este 0 -- -- 77
2017-10-03 04:00:00 12.4 0 Calma 5 Oeste 0 -- -- 80
2017-10-03 03:00:00 13.7 0 Calma 5 Oeste 0 -- -- 77
2017-10-03 02:00:00 16.4 3 Sur 11 Sur 0 -- -- 68
2017-10-03 01:00:00 17.2 9 Sur 12 Sur 0 -- -- 67
2017-10-03 00:00:00 17.5 4 Sur 7 Sudeste 0 -- -- 65
2017-10-02 23:00:00 18.4 5 Este 13 Este 0 -- -- 62
2017-10-02 22:00:00 19.7 9 Este 11 Este 0 -- -- 59
2017-10-02 21:00:00 22.6 5 Nordeste 10 Nordeste 0 -- -- 53
2017-10-02 20:00:00 25.5 7 Norte 15 Noroeste 0 -- -- 49
2017-10-02 19:00:00 27.9 11 Noroeste 20 Norte 0 -- -- 44
2017-10-02 18:00:00 28.2 13 Nordeste 20 Nordeste 0 -- -- 43
2017-10-02 17:00:00 28.4 6 Nordeste 23 Norte 0 -- -- 41
2017-10-02 16:00:00 27.3 10 Nordeste 21 Nordeste 0 -- -- 43
2017-10-02 15:00:00 26.9 9 Nordeste 25 Nordeste 0 -- -- 44
2017-10-02 14:00:00 26 7 Nordeste 24 Nordeste 0 -- -- 45
2017-10-02 13:00:00 24.7 11 Este 22 Este 0 -- -- 44
2017-10-02 12:00:00 23.6 8 Nordeste 14 Nordeste 0 -- -- 43
2017-10-02 11:00:00 21.2 4 Nordeste 9 Este 0 -- -- 47
2017-10-02 10:00:00 16.3 7 Este 10 Nordeste 0 -- -- 57
2017-10-02 09:00:00 13.5 2 Este 3 Este 0 -- -- 64
2017-10-02 08:00:00 10.7 2 Sudoeste 6 Sudoeste 0 -- -- 78
2017-10-02 07:00:00 11 5 Sudoeste 7 Sudoeste 0 -- -- 72
2017-10-02 06:00:00 11.4 5 Sur 6 Sur 0 -- -- 69
2017-10-02 05:00:00 12.1 5 Sur 6 Sur 0 -- -- 67
2017-10-02 04:00:00 12.4 4 Sur 6 Sur 0 -- -- 66
2017-10-02 03:00:00 12.9 4 Sudoeste 5 Sudoeste 0 -- -- 68
2017-10-02 02:00:00 13.1 5 Sudoeste 8 Sudoeste 0 -- -- 70
2017-10-02 01:00:00 16.1 4 Sur 5 Sur 0 -- -- 58
2017-10-02 00:00:00 17.4 2 Oeste 5 Sudeste 0 -- -- 54
2017-10-01 23:00:00 17.6 3 Sudeste 4 Sudeste 0 -- -- 53
2017-10-01 22:00:00 19.1 2 Nordeste 12 Norte 0 -- -- 50
2017-10-01 21:00:00 20.6 9 Norte 13 Noroeste 0 -- -- 48
2017-10-01 20:00:00 22.9 11 Noroeste 15 Norte 0 -- -- 41
2017-10-01 19:00:00 24.6 3 Norte 11 Noroeste 0 -- -- 39
2017-10-01 18:00:00 24.9 3 Oeste 22 Noroeste 0 -- -- 39
2017-10-01 17:00:00 24.4 8 Noroeste 19 Norte 0 -- -- 40
2017-10-01 16:00:00 25.3 10 Noroeste 21 Noroeste 0 -- -- 38
2017-10-01 15:00:00 24.5 5 Noroeste 18 Noroeste 0 -- -- 41
2017-10-01 14:00:00 23.4 7 Noroeste 17 Noroeste 0 -- -- 45
2017-10-01 13:00:00 21.9 7 Nordeste 13 Nordeste 0 -- -- 50
2017-10-01 12:00:00 20.7 5 Nordeste 9 Nordeste 0 -- -- 56
2017-10-01 11:00:00 18.9 3 Este 6 Este 0 -- -- 58
2017-10-01 10:00:00 15.9 4 Noroeste 6 Noroeste 0 -- -- 69
2017-10-01 09:00:00 11.3 0 Calma -- -- 0 -- -- 85
2017-10-01 08:00:00 11 5 Oeste 6 Oeste 0 -- -- 84
2017-10-01 07:00:00 11.5 4 Oeste 7 Oeste 0 -- -- 86
2017-10-01 06:00:00 11.6 4 Oeste 11 Sudoeste 0 -- -- 83
2017-10-01 05:00:00 12.1 4 Sudoeste 11 Norte 0 -- -- 80
2017-10-01 04:00:00 12.9 4 Norte 8 Norte 0 -- -- 79
2017-10-01 03:00:00 13.2 5 Norte 14 Norte 0 -- -- 77
2017-10-01 02:00:00 15.3 12 Nordeste 17 Nordeste 0 -- -- 70
2017-10-01 01:00:00 15.4 7 Norte 16 Noroeste 0 -- -- 61
2017-10-01 00:00:00 16.6 13 Noroeste 21 Noroeste 0 -- -- 59
2017-09-30 23:00:00 16 6 Sudoeste 7 Sudoeste 0 -- -- 59
2017-09-30 22:00:00 17.1 4 Oeste 9 Noroeste 0 -- -- 56
2017-09-30 21:00:00 18.6 5 Noroeste 10 Noroeste 0 -- -- 51
2017-09-30 20:00:00 21.8 10 Noroeste 19 Noroeste 0 -- -- 42
2017-09-30 19:00:00 24.9 13 Noroeste 21 Oeste 0 -- -- 35
2017-09-30 18:00:00 25.3 14 Noroeste 27 Noroeste 0 -- -- 28
2017-09-30 17:00:00 25.3 16 Noroeste 25 Noroeste 0 -- -- 38
2017-09-30 16:00:00 24.7 15 Oeste 26 Oeste 0 -- -- 44
2017-09-30 15:00:00 24.9 5 Noroeste 23 Oeste 0 -- -- 42
2017-09-30 14:00:00 23 10 Noroeste 23 Oeste 0 -- -- 50
2017-09-30 13:00:00 21.3 14 Oeste 23 Oeste 0 -- -- 56
2017-09-30 12:00:00 19.4 13 Oeste 18 Oeste 0 -- -- 64
2017-09-30 11:00:00 17.4 9 Sudoeste 13 Sudoeste 0 -- -- 70
2017-09-30 10:00:00 15.5 10 Sudoeste 14 Sudoeste 0 -- -- 73
2017-09-30 09:00:00 13.8 10 Sudoeste 16 Sudoeste 0 -- -- 76
2017-09-30 08:00:00 13.6 13 Sudoeste 15 Sudoeste 0 -- -- 73
2017-09-30 07:00:00 14.3 13 Sudoeste 20 Sudoeste 0 -- -- 68
2017-09-30 06:00:00 14.1 13 Sudoeste 19 Sudoeste 0 -- -- 66
2017-09-30 05:00:00 12.9 10 Sudoeste 14 Sudoeste 0 -- -- 69
2017-09-30 04:00:00 13.8 8 Sudoeste 16 Sudoeste 0 -- -- 62
2017-09-30 03:00:00 14.1 12 Sudoeste 13 Sudoeste 0 -- -- 66
2017-09-30 02:00:00 14.6 10 Sudoeste 12 Sudoeste 0 -- -- 65
2017-09-30 01:00:00 15.5 0 Calma 10 Sudoeste 0 -- -- 54
2017-09-30 00:00:00 16.2 6 Sur 8 Sur 0 -- -- 53
2017-09-29 23:00:00 18.2 3 Sudoeste 5 Sudoeste 0 -- -- 52
2017-09-29 22:00:00 20.4 3 Sudoeste 8 Noroeste 0 -- -- 44
2017-09-29 21:00:00 21.2 7 Noroeste 11 Noroeste 0 -- -- 43
2017-09-29 20:00:00 24.6 9 Oeste 19 Oeste 0 -- -- 36
2017-09-29 19:00:00 27.3 13 Oeste 28 Oeste 0 -- -- 32
2017-09-29 18:00:00 28 16 Sudoeste 32 Oeste 0 -- -- 30
2017-09-29 17:00:00 27.6 10 Sudoeste 29 Sudoeste 0 -- -- 31
2017-09-29 16:00:00 27.6 11 Sudoeste 23 Sudeste 0 -- -- 31
2017-09-29 15:00:00 28 6 Sudeste 19 Sur 0 -- -- 31
2017-09-29 14:00:00 26.4 6 Este 15 Sur 0 -- -- 33
2017-09-29 13:00:00 26.9 3 Oeste 9 Oeste 0 -- -- 33
2017-09-29 12:00:00 23.1 4 Oeste 13 Oeste 0 -- -- 40
2017-09-29 11:00:00 20.7 6 Oeste 9 Oeste 0 -- -- 47
2017-09-29 10:00:00 17.6 5 Oeste 12 Sudoeste 0 -- -- 55
2017-09-29 09:00:00 14.2 8 Sudoeste 15 Sudoeste 0 -- -- 63
2017-09-29 08:00:00 14.8 11 Sudoeste 15 Sudoeste 0 -- -- 58
2017-09-29 07:00:00 16.4 6 Sudoeste 14 Sudoeste 0 -- -- 52
2017-09-29 06:00:00 16.2 11 Sudoeste 13 Sudoeste 0 -- -- 52
2017-09-29 05:00:00 16.6 6 Sudoeste 11 Sur 0 -- -- 49
2017-09-29 04:00:00 16.5 9 Sudoeste 12 Sudoeste 0 -- -- 50
2017-09-29 03:00:00 15.8 3 Sudeste 5 Sudeste 0 -- -- 47
2017-09-29 02:00:00 14.8 4 Norte 8 Norte 0 -- -- 48
2017-09-29 01:00:00 14.7 3 Norte 9 Sudoeste 0 -- -- 48
2017-09-29 00:00:00 15.2 8 Sudoeste 10 Sudoeste 0 -- -- 48
2017-09-28 23:00:00 17.2 10 Sudoeste 22 Sudoeste 0 -- -- 45
2017-09-28 22:00:00 20.8 17 Sudoeste 21 Sudoeste 0 -- -- 34
2017-09-28 21:00:00 20.3 9 Sudoeste 10 Sudoeste 0 -- -- 33
2017-09-28 20:00:00 24.2 10 Sudoeste 18 Sudoeste 0 -- -- 30
2017-09-28 19:00:00 27.3 13 Sudoeste 24 Sur 0 -- -- 26
2017-09-28 18:00:00 28.4 12 Sudoeste 21 Sudoeste 0 -- -- 24
2017-09-28 17:00:00 28.4 10 Sudoeste 20 Sudoeste 0 -- -- 26
2017-09-28 16:00:00 28.7 4 Norte 26 Sur 0 -- -- 25
2017-09-28 15:00:00 28.3 5 Este 18 Sudoeste 0 -- -- 25
2017-09-28 14:00:00 26.5 11 Sur 19 Este 0 -- -- 27
2017-09-28 13:00:00 26 6 Sudeste 15 Este 0 -- -- 30
2017-09-28 12:00:00 24.5 6 Sudeste 12 Sudeste 0 -- -- 34
2017-09-28 11:00:00 21.1 6 Sur 9 Sur 0 -- -- 35
2017-09-28 10:00:00 16.5 6 Sudeste 9 Sur 0 -- -- 43
2017-09-28 09:00:00 11.9 8 Sur 17 Sur 0 -- -- 55
2017-09-28 08:00:00 10.2 4 Sur 11 Sur 0 -- -- 60
2017-09-28 07:00:00 9.6 5 Sur 9 Sur 0 -- -- 61
2017-09-28 06:00:00 10.5 5 Sur 12 Sur 0 -- -- 57
2017-09-28 05:00:00 9.9 7 Sur 9 Sur 0 -- -- 59
2017-09-28 04:00:00 10.6 2 Sudeste 13 Noroeste 0 -- -- 53
2017-09-28 03:00:00 12.7 5 Sur 20 Noroeste 0 -- -- 49
2017-09-28 02:00:00 12.8 0 Calma 6 Sudoeste 0 -- -- 51
2017-09-28 01:00:00 13.9 3 Sur 14 Sur 0 -- -- 44
2017-09-28 00:00:00 16.1 13 Sur 20 Sur 0 -- -- 41
2017-09-27 23:00:00 15.7 6 Sudeste 12 Sudeste 0 -- -- 38
2017-09-27 22:00:00 19.6 12 Sudoeste 17 Sudoeste 0 -- -- 33
2017-09-27 21:00:00 19.8 6 Sudoeste 15 Sudoeste 0 -- -- 29
2017-09-27 20:00:00 24.5 7 Oeste 18 Oeste 0 -- -- 23
2017-09-27 19:00:00 27.6 9 Sudoeste 20 Sudoeste 0 -- -- 21
2017-09-27 18:00:00 27.8 10 Sudoeste 21 Sudoeste 0 -- -- 21
2017-09-27 17:00:00 28.2 10 Sudoeste 24 Sur 0 -- -- 21
2017-09-27 16:00:00 26.8 16 Sudoeste 26 Oeste 0 -- -- 22
2017-09-27 15:00:00 27.4 12 Sudoeste 24 Sudoeste 0 -- -- 22
2017-09-27 14:00:00 26.1 10 Sur 20 Sudoeste 0 -- -- 24
2017-09-27 13:00:00 25.5 6 Sudeste 14 Sudeste 0 -- -- 26
2017-09-27 12:00:00 23.1 5 Sudeste 12 Sur 0 -- -- 30
2017-09-27 11:00:00 19.2 5 Sur 9 Sur 0 -- -- 36
2017-09-27 10:00:00 15.5 3 Sur 5 Sur 0 -- -- 45
2017-09-27 09:00:00 8.7 4 Sur 8 Este 0 -- -- 64
2017-09-27 08:00:00 6.1 4 Sudeste 12 Este 0 -- -- 64
2017-09-27 07:00:00 6.4 4 Sudeste 8 Sudeste 0 -- -- 65
2017-09-27 06:00:00 6.9 0 Calma 4 Sudoeste 0 -- -- 64
2017-09-27 05:00:00 7.6 0 Calma 2 Este 0 -- -- 58
2017-09-27 04:00:00 8.4 0 Calma 7 Sur 0 -- -- 59
2017-09-27 03:00:00 11.5 3 Sur 14 Sur 0 -- -- 49
2017-09-27 02:00:00 13 15 Sur 17 Sur 0 -- -- 45
2017-09-27 01:00:00 11.5 10 Sur 12 Sur 0 -- -- 49
2017-09-27 00:00:00 12.7 5 Sudeste 8 Sudeste 0 -- -- 45
2017-09-26 23:00:00 13.2 0 Calma 4 Noroeste 0 -- -- 41
2017-09-26 22:00:00 14.8 4 Noroeste 6 Noroeste 0 -- -- 44
2017-09-26 21:00:00 16.9 5 Noroeste 10 Noroeste 0 -- -- 39
2017-09-26 20:00:00 22.6 8 Noroeste 10 Oeste 0 -- -- 29
2017-09-26 19:00:00 25.7 5 Noroeste 15 Noroeste 0 -- -- 26
2017-09-26 18:00:00 24.9 8 Norte 18 Este 0 -- -- 29
2017-09-26 17:00:00 26.1 5 Nordeste 14 Norte 0 -- -- 27
2017-09-26 16:00:00 24.2 8 Nordeste 15 Nordeste 0 -- -- 29
2017-09-26 15:00:00 24.7 4 Norte 18 Nordeste 0 -- -- 30
2017-09-26 14:00:00 22.8 8 Norte 14 Nordeste 0 -- -- 35
2017-09-26 13:00:00 21.1 7 Norte 17 Nordeste 0 -- -- 40
2017-09-26 12:00:00 17.9 8 Nordeste 15 Nordeste 0 -- -- 51
2017-09-26 11:00:00 14.6 8 Nordeste 12 Nordeste 0 -- -- 60
2017-09-26 10:00:00 12.8 3 Este 7 Sudeste 0 -- -- 65
2017-09-26 09:00:00 7.8 4 Sudeste 5 Sudeste 0 -- -- 79
2017-09-26 08:00:00 5.4 0 Calma 3 Sudoeste 0 -- -- 84
2017-09-26 07:00:00 5.5 0 Calma 3 Noroeste 0 -- -- 81
2017-09-26 06:00:00 6.7 0 Calma 8 Noroeste 0 -- -- 81
2017-09-26 05:00:00 7.2 8 Noroeste 10 Oeste 0 -- -- 82
2017-09-26 04:00:00 8.6 4 Sudeste 6 Sudeste 0 -- -- 74
2017-09-26 03:00:00 10.1 5 Nordeste 9 Nordeste 0 -- -- 71
2017-09-26 02:00:00 9.8 3 Nordeste 10 Norte 0 -- -- 66
2017-09-26 01:00:00 11 4 Nordeste 9 Norte 0 -- -- 57
2017-09-26 00:00:00 13.2 6 Nordeste 11 Norte 0 -- -- 50
2017-09-25 23:00:00 13 0 Calma 6 Noroeste 0 -- -- 47
2017-09-25 22:00:00 15.4 4 Noroeste 11 Noroeste 0 -- -- 43
2017-09-25 21:00:00 16.8 9 Noroeste 12 Noroeste 0 -- -- 42
2017-09-25 20:00:00 20.6 10 Noroeste 20 Noroeste 0 -- -- 36
2017-09-25 19:00:00 23 13 Noroeste 24 Noroeste 0 -- -- 32
2017-09-25 18:00:00 23.6 13 Noroeste 29 Noroeste 0 -- -- 31
2017-09-25 17:00:00 23.3 14 Noroeste 28 Noroeste 0 -- -- 34
2017-09-25 16:00:00 23.1 14 Noroeste 27 Noroeste 0 -- -- 36
2017-09-25 15:00:00 22.1 13 Noroeste 23 Noroeste 0 -- -- 38
2017-09-25 14:00:00 21.5 12 Oeste 21 Oeste 0 -- -- 41
2017-09-25 13:00:00 20.4 9 Oeste 17 Noroeste 0 -- -- 45
2017-09-25 12:00:00 18.4 9 Norte 21 Noroeste 0 -- -- 54
2017-09-25 11:00:00 17.8 12 Oeste 20 Oeste 0 -- -- 59
2017-09-25 10:00:00 14.9 13 Oeste 18 Oeste 0 -- -- 72
2017-09-25 09:00:00 12.1 8 Sudoeste 10 Sudoeste 0 -- -- 80
2017-09-25 08:00:00 10.6 5 Oeste 16 Oeste 0 -- -- 81
2017-09-25 07:00:00 11.8 8 Oeste 13 Oeste 0 -- -- 71
2017-09-25 06:00:00 13 10 Sudoeste 15 Sudoeste 0 -- -- 65
2017-09-25 05:00:00 15.4 10 Sudoeste 15 Sudoeste 0 -- -- 53
2017-09-25 04:00:00 15 8 Sudoeste 10 Sudoeste 0 -- -- 45
2017-09-25 03:00:00 14.3 8 Sudoeste 16 Sudoeste 0 -- -- 45
2017-09-25 02:00:00 16.7 14 Sudoeste 19 Sudoeste 0 -- -- 40
2017-09-25 01:00:00 18.4 13 Sudoeste 27 Sudoeste 0 -- -- 35
2017-09-25 00:00:00 19.4 15 Sudoeste 23 Sudoeste 0 -- -- 30
2017-09-24 23:00:00 18.8 15 Sudoeste 27 Sudoeste 0 -- -- 43
2017-09-24 22:00:00 20.8 17 Sudoeste 32 Sudoeste 0 -- -- 39
2017-09-24 21:00:00 23.3 24 Sudoeste 34 Sudoeste 0 -- -- 34
2017-09-24 20:00:00 24.7 22 Sudoeste 36 Sudoeste 0 -- -- 28
2017-09-24 19:00:00 26.5 27 Sudoeste 37 Sudoeste 0 -- -- 28
2017-09-24 18:00:00 27.1 25 Sudoeste 38 Sudoeste 0 -- -- 27
2017-09-24 17:00:00 28.2 20 Sudoeste 37 Sudoeste 0 -- -- 23
2017-09-24 16:00:00 28.3 25 Sudoeste 38 Sur 0 -- -- 24
2017-09-24 15:00:00 27.7 17 Oeste 34 Oeste 0 -- -- 28
2017-09-24 14:00:00 27 20 Sudoeste 33 Sudoeste 0 -- -- 27
2017-09-24 13:00:00 25.9 20 Sudoeste 30 Sudoeste 0 -- -- 32
2017-09-24 12:00:00 24.5 7 Sudoeste 15 Sur 0 -- -- 31
2017-09-24 11:00:00 21.9 7 Este 10 Este 0 -- -- 36
2017-09-24 10:00:00 17 5 Sudeste 8 Sudeste 0 -- -- 45
2017-09-24 09:00:00 12.1 2 Este 4 Sur 0 -- -- 60
2017-09-24 08:00:00 9.4 4 Sur 11 Sur 0 -- -- 67
2017-09-24 07:00:00 10 3 Sur 6 Sur 0 -- -- 65
2017-09-24 06:00:00 11 5 Sur 10 Sudoeste 0 -- -- 63
2017-09-24 05:00:00 12.3 11 Sudoeste 16 Sudoeste 0 -- -- 64
2017-09-24 04:00:00 12.5 7 Sudoeste 13 Sudoeste 0 -- -- 62
2017-09-24 03:00:00 14 6 Sur 13 Sudoeste 0 -- -- 54
2017-09-24 02:00:00 14.7 12 Sudoeste 15 Sudoeste 0 -- -- 54
2017-09-24 01:00:00 15.8 5 Sur 12 Sur 0 -- -- 50
2017-09-24 00:00:00 16.5 4 Sur 10 Sudoeste 0 -- -- 47
2017-09-23 23:00:00 17 6 Sudoeste 10 Sur 0 -- -- 46
2017-09-23 22:00:00 18 9 Sudoeste 15 Oeste 0 -- -- 44
2017-09-23 21:00:00 20.5 12 Oeste 14 Oeste 0 -- -- 39
2017-09-23 20:00:00 24.6 7 Oeste 19 Noroeste 0 -- -- 33
2017-09-23 19:00:00 27.2 13 Oeste 28 Oeste 0 -- -- 26
2017-09-23 18:00:00 27.9 15 Sudoeste 26 Sudoeste 0 -- -- 24
2017-09-23 17:00:00 28.4 9 Sudoeste 38 Sudoeste 0 -- -- 25
2017-09-23 16:00:00 28.2 13 Oeste 28 Oeste 0 -- -- 25
2017-09-23 15:00:00 27.3 12 Oeste 27 Oeste 0 -- -- 27
2017-09-23 14:00:00 26.5 10 Oeste 22 Oeste 0 -- -- 27
2017-09-23 13:00:00 25.2 13 Noroeste 23 Oeste 0 -- -- 33
2017-09-23 12:00:00 22.9 13 Oeste 18 Oeste 0 -- -- 40
2017-09-23 11:00:00 21.3 10 Sudoeste 23 Sur 0 -- -- 50
2017-09-23 10:00:00 18.6 17 Sur 23 Sur 0 -- -- 60
2017-09-23 09:00:00 15.4 9 Sudoeste 29 Sudeste 0 -- -- 72
2017-09-23 08:00:00 15.1 21 Sudeste 31 Sudeste 0 -- -- 73
2017-09-23 07:00:00 14.9 19 Sudeste 26 Sudeste 0 -- -- 74
2017-09-23 06:00:00 15.1 15 Sudeste 22 Sudeste 0 -- -- 73
2017-09-23 05:00:00 15.3 17 Sudeste 23 Sudeste 0 -- -- 72
2017-09-23 04:00:00 15.1 15 Sudeste 26 Sudeste 0 -- -- 65
2017-09-23 03:00:00 15.4 17 Sudeste 22 Sudeste 0 -- -- 54
2017-09-23 02:00:00 12.7 9 Sudeste 15 Sudeste 0 -- -- 57
2017-09-23 01:00:00 12.7 3 Oeste 12 Este 0 -- -- 53
2017-09-23 00:00:00 13.8 8 Sudoeste 10 Sudoeste 0 -- -- 53